sensor_id;sensor_type;location;lat;lon;timestamp;P1;durP1;ratioP1;P2;durP2;ratioP2
9115;SDS011;4593;53.652;10.168;2022-11-21T00:01:58;7.90;;;5.90;;
9115;SDS011;4593;53.652;10.168;2022-11-21T00:04:24;8.57;;;7.15;;
9115;SDS011;4593;53.652;10.168;2022-11-21T00:06:50;7.65;;;6.70;;
9115;SDS011;4593;53.652;10.168;2022-11-21T00:09:16;8.30;;;7.38;;
9115;SDS011;4593;53.652;10.168;2022-11-21T00:11:42;10.40;;;8.35;;
9115;SDS011;4593;53.652;10.168;2022-11-21T00:14:08;8.23;;;7.17;;
9115;SDS011;4593;53.652;10.168;2022-11-21T00:16:34;8.17;;;6.97;;
9115;SDS011;4593;53.652;10.168;2022-11-21T00:19:00;8.77;;;6.90;;
9115;SDS011;4593;53.652;10.168;2022-11-21T00:21:26;10.37;;;6.37;;
9115;SDS011;4593;53.652;10.168;2022-11-21T00:23:52;9.73;;;6.18;;
9115;SDS011;4593;53.652;10.168;2022-11-21T00:26:17;11.13;;;7.53;;
9115;SDS011;4593;53.652;10.168;2022-11-21T00:28:43;10.40;;;6.67;;
9115;SDS011;4593;53.652;10.168;2022-11-21T00:31:20;9.23;;;6.93;;
9115;SDS011;4593;53.652;10.168;2022-11-21T00:33:47;9.43;;;7.47;;
9115;SDS011;4593;53.652;10.168;2022-11-21T00:36:13;6.37;;;5.43;;
9115;SDS011;4593;53.652;10.168;2022-11-21T00:38:39;9.13;;;5.88;;
9115;SDS011;4593;53.652;10.168;2022-11-21T00:41:05;7.20;;;6.50;;
9115;SDS011;4593;53.652;10.168;2022-11-21T00:43:30;6.35;;;5.68;;
9115;SDS011;4593;53.652;10.168;2022-11-21T00:45:56;4.53;;;4.10;;
9115;SDS011;4593;53.652;10.168;2022-11-21T00:48:25;12.77;;;5.75;;
9115;SDS011;4593;53.652;10.168;2022-11-21T00:50:50;7.03;;;5.60;;
9115;SDS011;4593;53.652;10.168;2022-11-21T00:53:16;6.13;;;5.10;;
9115;SDS011;4593;53.652;10.168;2022-11-21T00:55:42;10.30;;;6.13;;
9115;SDS011;4593;53.652;10.168;2022-11-21T00:58:08;6.73;;;6.10;;
9115;SDS011;4593;53.652;10.168;2022-11-21T01:00:34;7.77;;;6.00;;
9115;SDS011;4593;53.652;10.168;2022-11-21T01:03:00;5.25;;;4.75;;
9115;SDS011;4593;53.652;10.168;2022-11-21T01:05:26;7.05;;;5.40;;
9115;SDS011;4593;53.652;10.168;2022-11-21T01:07:52;6.00;;;5.50;;
9115;SDS011;4593;53.652;10.168;2022-11-21T01:10:18;6.10;;;5.50;;
9115;SDS011;4593;53.652;10.168;2022-11-21T01:12:43;6.33;;;5.73;;
9115;SDS011;4593;53.652;10.168;2022-11-21T01:15:09;10.77;;;6.77;;
9115;SDS011;4593;53.652;10.168;2022-11-21T01:17:35;5.80;;;5.30;;
9115;SDS011;4593;53.652;10.168;2022-11-21T01:20:01;10.87;;;6.03;;
9115;SDS011;4593;53.652;10.168;2022-11-21T01:22:27;6.57;;;5.35;;
9115;SDS011;4593;53.652;10.168;2022-11-21T01:24:53;7.95;;;5.95;;
9115;SDS011;4593;53.652;10.168;2022-11-21T01:27:19;6.75;;;6.15;;
9115;SDS011;4593;53.652;10.168;2022-11-21T01:29:45;8.80;;;6.20;;
9115;SDS011;4593;53.652;10.168;2022-11-21T01:32:11;8.03;;;5.83;;
9115;SDS011;4593;53.652;10.168;2022-11-21T01:34:37;7.55;;;6.53;;
9115;SDS011;4593;53.652;10.168;2022-11-21T01:37:03;7.68;;;5.53;;
9115;SDS011;4593;53.652;10.168;2022-11-21T01:39:29;9.27;;;6.73;;
9115;SDS011;4593;53.652;10.168;2022-11-21T01:41:55;6.15;;;5.50;;
9115;SDS011;4593;53.652;10.168;2022-11-21T01:44:22;9.13;;;5.60;;
9115;SDS011;4593;53.652;10.168;2022-11-21T01:46:49;8.77;;;5.65;;
9115;SDS011;4593;53.652;10.168;2022-11-21T01:49:17;5.60;;;4.55;;
9115;SDS011;4593;53.652;10.168;2022-11-21T01:56:52;5.03;;;4.53;;
9115;SDS011;4593;53.652;10.168;2022-11-21T01:59:56;4.85;;;4.45;;
9115;SDS011;4593;53.652;10.168;2022-11-21T02:02:32;6.47;;;4.47;;
9115;SDS011;4593;53.652;10.168;2022-11-21T02:05:00;6.93;;;4.97;;
9115;SDS011;4593;53.652;10.168;2022-11-21T02:07:29;5.45;;;4.82;;
9115;SDS011;4593;53.652;10.168;2022-11-21T02:09:58;5.38;;;4.25;;
9115;SDS011;4593;53.652;10.168;2022-11-21T02:12:28;4.78;;;4.38;;
9115;SDS011;4593;53.652;10.168;2022-11-21T02:14:55;5.03;;;4.53;;
9115;SDS011;4593;53.652;10.168;2022-11-21T02:17:22;5.05;;;4.32;;
9115;SDS011;4593;53.652;10.168;2022-11-21T02:22:25;4.55;;;3.60;;
9115;SDS011;4593;53.652;10.168;2022-11-21T02:27:30;6.07;;;4.60;;
9115;SDS011;4593;53.652;10.168;2022-11-21T02:29:56;4.50;;;4.10;;
9115;SDS011;4593;53.652;10.168;2022-11-21T02:32:22;4.87;;;4.07;;
9115;SDS011;4593;53.652;10.168;2022-11-21T02:34:49;4.13;;;3.72;;
9115;SDS011;4593;53.652;10.168;2022-11-21T02:37:15;5.57;;;4.80;;
9115;SDS011;4593;53.652;10.168;2022-11-21T02:39:41;6.72;;;4.57;;
9115;SDS011;4593;53.652;10.168;2022-11-21T02:42:11;4.30;;;3.92;;
9115;SDS011;4593;53.652;10.168;2022-11-21T02:44:45;4.55;;;4.15;;
9115;SDS011;4593;53.652;10.168;2022-11-21T02:47:11;3.78;;;3.47;;
9115;SDS011;4593;53.652;10.168;2022-11-21T02:52:09;6.30;;;4.35;;
9115;SDS011;4593;53.652;10.168;2022-11-21T02:54:35;5.10;;;4.30;;
9115;SDS011;4593;53.652;10.168;2022-11-21T02:57:01;5.77;;;4.87;;
9115;SDS011;4593;53.652;10.168;2022-11-21T02:59:26;4.60;;;4.20;;
9115;SDS011;4593;53.652;10.168;2022-11-21T03:01:52;5.20;;;4.77;;
9115;SDS011;4593;53.652;10.168;2022-11-21T03:04:18;7.15;;;4.63;;
9115;SDS011;4593;53.652;10.168;2022-11-21T03:06:44;4.90;;;4.40;;
9115;SDS011;4593;53.652;10.168;2022-11-21T03:09:10;6.10;;;4.60;;
9115;SDS011;4593;53.652;10.168;2022-11-21T03:11:36;4.75;;;4.22;;
9115;SDS011;4593;53.652;10.168;2022-11-21T03:14:02;6.57;;;3.77;;
9115;SDS011;4593;53.652;10.168;2022-11-21T03:16:28;5.63;;;4.03;;
9115;SDS011;4593;53.652;10.168;2022-11-21T03:18:54;5.10;;;4.57;;
9115;SDS011;4593;53.652;10.168;2022-11-21T03:21:21;4.32;;;4.00;;
9115;SDS011;4593;53.652;10.168;2022-11-21T03:23:47;4.73;;;4.07;;
9115;SDS011;4593;53.652;10.168;2022-11-21T03:26:13;4.63;;;3.77;;
9115;SDS011;4593;53.652;10.168;2022-11-21T03:28:40;6.07;;;4.57;;
9115;SDS011;4593;53.652;10.168;2022-11-21T03:31:06;4.47;;;4.00;;
9115;SDS011;4593;53.652;10.168;2022-11-21T03:33:31;4.70;;;3.83;;
9115;SDS011;4593;53.652;10.168;2022-11-21T03:35:57;4.87;;;4.47;;
9115;SDS011;4593;53.652;10.168;2022-11-21T03:38:23;4.73;;;3.97;;
9115;SDS011;4593;53.652;10.168;2022-11-21T03:40:49;4.47;;;4.10;;
9115;SDS011;4593;53.652;10.168;2022-11-21T03:43:15;6.90;;;4.73;;
9115;SDS011;4593;53.652;10.168;2022-11-21T03:45:41;4.72;;;4.32;;
9115;SDS011;4593;53.652;10.168;2022-11-21T03:48:10;5.22;;;4.72;;
9115;SDS011;4593;53.652;10.168;2022-11-21T03:50:36;7.50;;;6.33;;
9115;SDS011;4593;53.652;10.168;2022-11-21T03:53:02;6.23;;;4.77;;
9115;SDS011;4593;53.652;10.168;2022-11-21T03:55:27;9.20;;;4.53;;
9115;SDS011;4593;53.652;10.168;2022-11-21T03:57:53;5.63;;;4.87;;
9115;SDS011;4593;53.652;10.168;2022-11-21T04:00:19;4.27;;;3.87;;
9115;SDS011;4593;53.652;10.168;2022-11-21T04:02:46;4.07;;;3.08;;
9115;SDS011;4593;53.652;10.168;2022-11-21T04:05:12;7.70;;;4.70;;
9115;SDS011;4593;53.652;10.168;2022-11-21T04:07:38;4.67;;;4.20;;
9115;SDS011;4593;53.652;10.168;2022-11-21T04:10:04;5.03;;;4.20;;
9115;SDS011;4593;53.652;10.168;2022-11-21T04:12:30;4.07;;;3.67;;
9115;SDS011;4593;53.652;10.168;2022-11-21T04:14:56;4.18;;;3.85;;
9115;SDS011;4593;53.652;10.168;2022-11-21T04:17:22;4.33;;;3.80;;
9115;SDS011;4593;53.652;10.168;2022-11-21T04:19:48;6.53;;;4.67;;
9115;SDS011;4593;53.652;10.168;2022-11-21T04:22:14;7.70;;;4.28;;
9115;SDS011;4593;53.652;10.168;2022-11-21T04:24:40;5.40;;;4.37;;
9115;SDS011;4593;53.652;10.168;2022-11-21T04:27:06;6.00;;;4.13;;
9115;SDS011;4593;53.652;10.168;2022-11-21T04:29:31;4.50;;;4.10;;
9115;SDS011;4593;53.652;10.168;2022-11-21T04:31:57;5.30;;;4.80;;
9115;SDS011;4593;53.652;10.168;2022-11-21T04:34:23;3.93;;;3.57;;
9115;SDS011;4593;53.652;10.168;2022-11-21T04:36:49;6.00;;;4.47;;
9115;SDS011;4593;53.652;10.168;2022-11-21T04:39:15;7.38;;;4.65;;
9115;SDS011;4593;53.652;10.168;2022-11-21T04:41:41;8.38;;;3.78;;
9115;SDS011;4593;53.652;10.168;2022-11-21T04:44:07;5.60;;;5.10;;
9115;SDS011;4593;53.652;10.168;2022-11-21T04:46:33;4.65;;;4.25;;
9115;SDS011;4593;53.652;10.168;2022-11-21T04:48:59;7.55;;;5.05;;
9115;SDS011;4593;53.652;10.168;2022-11-21T04:51:25;4.65;;;4.25;;
9115;SDS011;4593;53.652;10.168;2022-11-21T04:53:51;4.93;;;3.88;;
9115;SDS011;4593;53.652;10.168;2022-11-21T04:56:16;5.67;;;5.10;;
9115;SDS011;4593;53.652;10.168;2022-11-21T04:58:42;4.80;;;4.23;;
9115;SDS011;4593;53.652;10.168;2022-11-21T05:01:08;7.03;;;5.88;;
9115;SDS011;4593;53.652;10.168;2022-11-21T05:03:34;6.43;;;3.83;;
9115;SDS011;4593;53.652;10.168;2022-11-21T05:06:00;5.57;;;4.85;;
9115;SDS011;4593;53.652;10.168;2022-11-21T05:08:26;7.60;;;4.75;;
9115;SDS011;4593;53.652;10.168;2022-11-21T05:10:52;4.93;;;4.53;;
9115;SDS011;4593;53.652;10.168;2022-11-21T05:13:36;8.95;;;5.22;;
9115;SDS011;4593;53.652;10.168;2022-11-21T05:16:02;5.93;;;3.50;;
9115;SDS011;4593;53.652;10.168;2022-11-21T05:18:29;6.40;;;4.60;;
9115;SDS011;4593;53.652;10.168;2022-11-21T05:20:54;6.00;;;4.80;;
9115;SDS011;4593;53.652;10.168;2022-11-21T05:23:20;5.00;;;4.50;;
9115;SDS011;4593;53.652;10.168;2022-11-21T05:25:46;5.45;;;4.95;;
9115;SDS011;4593;53.652;10.168;2022-11-21T05:28:12;9.05;;;5.45;;
9115;SDS011;4593;53.652;10.168;2022-11-21T05:30:38;4.13;;;3.67;;
9115;SDS011;4593;53.652;10.168;2022-11-21T05:33:04;5.60;;;4.75;;
9115;SDS011;4593;53.652;10.168;2022-11-21T05:35:31;5.20;;;4.13;;
9115;SDS011;4593;53.652;10.168;2022-11-21T05:37:57;4.82;;;4.07;;
9115;SDS011;4593;53.652;10.168;2022-11-21T05:40:23;5.07;;;4.50;;
9115;SDS011;4593;53.652;10.168;2022-11-21T05:42:49;5.63;;;4.30;;
9115;SDS011;4593;53.652;10.168;2022-11-21T05:45:33;5.97;;;4.82;;
9115;SDS011;4593;53.652;10.168;2022-11-21T05:47:59;7.33;;;4.13;;
9115;SDS011;4593;53.652;10.168;2022-11-21T05:50:25;4.07;;;3.73;;
9115;SDS011;4593;53.652;10.168;2022-11-21T05:52:51;8.85;;;4.65;;
9115;SDS011;4593;53.652;10.168;2022-11-21T05:55:17;4.97;;;3.65;;
9115;SDS011;4593;53.652;10.168;2022-11-21T05:57:43;4.93;;;4.45;;
9115;SDS011;4593;53.652;10.168;2022-11-21T06:00:09;5.10;;;4.55;;
9115;SDS011;4593;53.652;10.168;2022-11-21T06:02:35;7.43;;;4.03;;
9115;SDS011;4593;53.652;10.168;2022-11-21T06:05:20;5.88;;;4.18;;
9115;SDS011;4593;53.652;10.168;2022-11-21T06:07:46;4.83;;;4.47;;
9115;SDS011;4593;53.652;10.168;2022-11-21T06:10:12;3.73;;;3.43;;
9115;SDS011;4593;53.652;10.168;2022-11-21T06:12:38;3.88;;;3.58;;
9115;SDS011;4593;53.652;10.168;2022-11-21T06:15:04;5.30;;;4.17;;
9115;SDS011;4593;53.652;10.168;2022-11-21T06:17:30;7.80;;;4.13;;
9115;SDS011;4593;53.652;10.168;2022-11-21T06:19:56;8.18;;;5.15;;
9115;SDS011;4593;53.652;10.168;2022-11-21T06:22:22;7.10;;;5.43;;
9115;SDS011;4593;53.652;10.168;2022-11-21T06:24:48;5.43;;;4.90;;
9115;SDS011;4593;53.652;10.168;2022-11-21T06:27:14;6.57;;;4.13;;
9115;SDS011;4593;53.652;10.168;2022-11-21T06:29:40;6.17;;;4.90;;
9115;SDS011;4593;53.652;10.168;2022-11-21T06:32:06;6.55;;;5.85;;
9115;SDS011;4593;53.652;10.168;2022-11-21T06:34:32;8.10;;;5.78;;
9115;SDS011;4593;53.652;10.168;2022-11-21T06:36:58;8.43;;;6.85;;
9115;SDS011;4593;53.652;10.168;2022-11-21T06:39:24;9.57;;;7.10;;
9115;SDS011;4593;53.652;10.168;2022-11-21T06:41:50;8.35;;;6.22;;
9115;SDS011;4593;53.652;10.168;2022-11-21T06:44:16;10.10;;;7.40;;
9115;SDS011;4593;53.652;10.168;2022-11-21T06:46:42;7.80;;;5.57;;
9115;SDS011;4593;53.652;10.168;2022-11-21T06:49:09;15.60;;;7.90;;
9115;SDS011;4593;53.652;10.168;2022-11-21T06:51:35;16.48;;;6.57;;
9115;SDS011;4593;53.652;10.168;2022-11-21T06:54:01;16.50;;;8.43;;
9115;SDS011;4593;53.652;10.168;2022-11-21T06:56:28;16.92;;;8.32;;
9115;SDS011;4593;53.652;10.168;2022-11-21T06:58:55;16.63;;;8.15;;
9115;SDS011;4593;53.652;10.168;2022-11-21T07:01:21;18.60;;;8.93;;
9115;SDS011;4593;53.652;10.168;2022-11-21T07:03:47;9.48;;;6.65;;
9115;SDS011;4593;53.652;10.168;2022-11-21T07:06:13;20.40;;;8.20;;
9115;SDS011;4593;53.652;10.168;2022-11-21T07:08:39;12.40;;;8.32;;
9115;SDS011;4593;53.652;10.168;2022-11-21T07:11:06;11.88;;;8.20;;
9115;SDS011;4593;53.652;10.168;2022-11-21T07:13:33;13.88;;;8.23;;
9115;SDS011;4593;53.652;10.168;2022-11-21T07:16:01;14.57;;;6.70;;
9115;SDS011;4593;53.652;10.168;2022-11-21T07:18:28;17.02;;;8.05;;
9115;SDS011;4593;53.652;10.168;2022-11-21T07:20:58;13.70;;;7.32;;
9115;SDS011;4593;53.652;10.168;2022-11-21T07:23:24;11.98;;;7.75;;
9115;SDS011;4593;53.652;10.168;2022-11-21T07:25:50;16.52;;;9.45;;
9115;SDS011;4593;53.652;10.168;2022-11-21T07:28:16;16.90;;;8.63;;
9115;SDS011;4593;53.652;10.168;2022-11-21T07:30:42;10.57;;;6.87;;
9115;SDS011;4593;53.652;10.168;2022-11-21T07:33:08;9.50;;;7.38;;
9115;SDS011;4593;53.652;10.168;2022-11-21T07:35:35;16.70;;;8.80;;
9115;SDS011;4593;53.652;10.168;2022-11-21T07:38:01;10.57;;;7.47;;
9115;SDS011;4593;53.652;10.168;2022-11-21T07:40:27;22.75;;;8.52;;
9115;SDS011;4593;53.652;10.168;2022-11-21T07:42:53;9.23;;;6.50;;
9115;SDS011;4593;53.652;10.168;2022-11-21T07:45:24;14.20;;;8.70;;
9115;SDS011;4593;53.652;10.168;2022-11-21T07:47:55;12.70;;;7.72;;
9115;SDS011;4593;53.652;10.168;2022-11-21T07:50:22;8.93;;;6.50;;
9115;SDS011;4593;53.652;10.168;2022-11-21T07:52:48;16.00;;;8.40;;
9115;SDS011;4593;53.652;10.168;2022-11-21T07:55:13;19.97;;;10.30;;
9115;SDS011;4593;53.652;10.168;2022-11-21T07:57:39;9.43;;;8.13;;
9115;SDS011;4593;53.652;10.168;2022-11-21T08:00:05;13.60;;;9.60;;
9115;SDS011;4593;53.652;10.168;2022-11-21T08:05:23;13.32;;;7.38;;
9115;SDS011;4593;53.652;10.168;2022-11-21T08:07:49;13.18;;;8.45;;
9115;SDS011;4593;53.652;10.168;2022-11-21T08:10:15;19.63;;;9.30;;
9115;SDS011;4593;53.652;10.168;2022-11-21T08:12:42;23.25;;;8.63;;
9115;SDS011;4593;53.652;10.168;2022-11-21T08:15:08;10.55;;;8.18;;
9115;SDS011;4593;53.652;10.168;2022-11-21T08:17:34;25.95;;;9.93;;
9115;SDS011;4593;53.652;10.168;2022-11-21T08:20:00;21.85;;;7.88;;
9115;SDS011;4593;53.652;10.168;2022-11-21T08:22:26;16.23;;;9.83;;
9115;SDS011;4593;53.652;10.168;2022-11-21T08:24:52;23.17;;;10.93;;
9115;SDS011;4593;53.652;10.168;2022-11-21T08:27:19;16.58;;;8.63;;
9115;SDS011;4593;53.652;10.168;2022-11-21T08:29:45;18.38;;;9.68;;
9115;SDS011;4593;53.652;10.168;2022-11-21T08:32:11;19.05;;;11.40;;
9115;SDS011;4593;53.652;10.168;2022-11-21T08:34:37;17.15;;;9.90;;
9115;SDS011;4593;53.652;10.168;2022-11-21T08:37:03;20.03;;;8.77;;
9115;SDS011;4593;53.652;10.168;2022-11-21T08:39:29;19.30;;;9.27;;
9115;SDS011;4593;53.652;10.168;2022-11-21T08:41:57;22.20;;;11.77;;
9115;SDS011;4593;53.652;10.168;2022-11-21T08:44:29;12.77;;;7.47;;
9115;SDS011;4593;53.652;10.168;2022-11-21T08:46:58;25.52;;;11.32;;
9115;SDS011;4593;53.652;10.168;2022-11-21T08:49:25;15.75;;;8.75;;
9115;SDS011;4593;53.652;10.168;2022-11-21T08:51:51;28.33;;;9.57;;
9115;SDS011;4593;53.652;10.168;2022-11-21T08:54:17;17.97;;;9.60;;
9115;SDS011;4593;53.652;10.168;2022-11-21T08:56:47;15.65;;;9.48;;
9115;SDS011;4593;53.652;10.168;2022-11-21T08:59:13;19.13;;;9.45;;
9115;SDS011;4593;53.652;10.168;2022-11-21T09:01:39;17.45;;;10.10;;
9115;SDS011;4593;53.652;10.168;2022-11-21T09:04:05;20.63;;;10.40;;
9115;SDS011;4593;53.652;10.168;2022-11-21T09:06:31;19.40;;;10.82;;
9115;SDS011;4593;53.652;10.168;2022-11-21T09:08:57;13.02;;;8.60;;
9115;SDS011;4593;53.652;10.168;2022-11-21T09:11:23;17.10;;;8.73;;
9115;SDS011;4593;53.652;10.168;2022-11-21T09:13:50;16.85;;;9.55;;
9115;SDS011;4593;53.652;10.168;2022-11-21T09:16:35;17.27;;;9.85;;
9115;SDS011;4593;53.652;10.168;2022-11-21T09:19:20;14.52;;;8.93;;
9115;SDS011;4593;53.652;10.168;2022-11-21T09:21:49;19.45;;;10.25;;
9115;SDS011;4593;53.652;10.168;2022-11-21T09:24:16;16.50;;;7.72;;
9115;SDS011;4593;53.652;10.168;2022-11-21T09:26:42;14.32;;;9.75;;
9115;SDS011;4593;53.652;10.168;2022-11-21T09:29:08;18.45;;;10.35;;
9115;SDS011;4593;53.652;10.168;2022-11-21T09:31:42;12.90;;;7.68;;
9115;SDS011;4593;53.652;10.168;2022-11-21T09:34:08;12.68;;;8.38;;
9115;SDS011;4593;53.652;10.168;2022-11-21T09:36:34;14.65;;;7.35;;
9115;SDS011;4593;53.652;10.168;2022-11-21T09:39:00;11.03;;;7.40;;
9115;SDS011;4593;53.652;10.168;2022-11-21T09:41:30;14.88;;;7.57;;
9115;SDS011;4593;53.652;10.168;2022-11-21T09:49:51;12.20;;;7.60;;
9115;SDS011;4593;53.652;10.168;2022-11-21T09:52:19;13.52;;;7.72;;
9115;SDS011;4593;53.652;10.168;2022-11-21T09:54:49;14.60;;;9.20;;
9115;SDS011;4593;53.652;10.168;2022-11-21T09:57:20;17.83;;;8.68;;
9115;SDS011;4593;53.652;10.168;2022-11-21T09:59:48;21.42;;;9.05;;
9115;SDS011;4593;53.652;10.168;2022-11-21T10:02:19;19.27;;;10.55;;
9115;SDS011;4593;53.652;10.168;2022-11-21T10:04:47;17.15;;;10.30;;
9115;SDS011;4593;53.652;10.168;2022-11-21T10:10:01;12.73;;;9.10;;
9115;SDS011;4593;53.652;10.168;2022-11-21T10:12:33;13.02;;;8.85;;
9115;SDS011;4593;53.652;10.168;2022-11-21T10:15:14;19.02;;;8.85;;
9115;SDS011;4593;53.652;10.168;2022-11-21T10:17:51;23.15;;;11.07;;
9115;SDS011;4593;53.652;10.168;2022-11-21T10:28:23;11.73;;;8.68;;
9115;SDS011;4593;53.652;10.168;2022-11-21T10:30:57;13.05;;;8.88;;
9115;SDS011;4593;53.652;10.168;2022-11-21T10:35:53;17.08;;;8.68;;
9115;SDS011;4593;53.652;10.168;2022-11-21T10:38:21;14.93;;;7.75;;
9115;SDS011;4593;53.652;10.168;2022-11-21T10:43:24;12.70;;;7.97;;
9115;SDS011;4593;53.652;10.168;2022-11-21T10:46:10;14.90;;;9.05;;
9115;SDS011;4593;53.652;10.168;2022-11-21T10:48:36;10.57;;;8.13;;
9115;SDS011;4593;53.652;10.168;2022-11-21T10:53:29;13.80;;;8.73;;
9115;SDS011;4593;53.652;10.168;2022-11-21T10:56:32;11.48;;;8.15;;
9115;SDS011;4593;53.652;10.168;2022-11-21T10:58:59;12.07;;;8.48;;
9115;SDS011;4593;53.652;10.168;2022-11-21T11:01:37;12.70;;;8.20;;
9115;SDS011;4593;53.652;10.168;2022-11-21T11:04:21;11.77;;;7.33;;
9115;SDS011;4593;53.652;10.168;2022-11-21T11:06:47;12.90;;;8.52;;
9115;SDS011;4593;53.652;10.168;2022-11-21T11:09:26;12.57;;;8.07;;
9115;SDS011;4593;53.652;10.168;2022-11-21T11:11:55;13.80;;;8.43;;
9115;SDS011;4593;53.652;10.168;2022-11-21T11:14:38;10.93;;;7.70;;
9115;SDS011;4593;53.652;10.168;2022-11-21T11:17:04;13.75;;;8.20;;
9115;SDS011;4593;53.652;10.168;2022-11-21T11:19:30;15.40;;;8.38;;
9115;SDS011;4593;53.652;10.168;2022-11-21T11:21:56;11.10;;;8.00;;
9115;SDS011;4593;53.652;10.168;2022-11-21T11:24:23;12.03;;;7.33;;
9115;SDS011;4593;53.652;10.168;2022-11-21T11:26:57;12.80;;;7.15;;
9115;SDS011;4593;53.652;10.168;2022-11-21T11:29:30;11.63;;;7.10;;
9115;SDS011;4593;53.652;10.168;2022-11-21T11:32:12;11.87;;;7.73;;
9115;SDS011;4593;53.652;10.168;2022-11-21T11:34:40;13.83;;;9.43;;
9115;SDS011;4593;53.652;10.168;2022-11-21T11:37:40;11.73;;;7.27;;
9115;SDS011;4593;53.652;10.168;2022-11-21T11:48:51;10.00;;;6.50;;
9115;SDS011;4593;53.652;10.168;2022-11-21T11:51:25;16.87;;;8.00;;
9115;SDS011;4593;53.652;10.168;2022-11-21T11:53:54;14.33;;;7.10;;
9115;SDS011;4593;53.652;10.168;2022-11-21T11:58:53;13.33;;;8.33;;
9115;SDS011;4593;53.652;10.168;2022-11-21T12:01:22;8.70;;;6.10;;
9115;SDS011;4593;53.652;10.168;2022-11-21T12:03:58;8.30;;;6.93;;
9115;SDS011;4593;53.652;10.168;2022-11-21T12:06:25;15.20;;;7.80;;
9115;SDS011;4593;53.652;10.168;2022-11-21T12:08:58;15.73;;;9.13;;
9115;SDS011;4593;53.652;10.168;2022-11-21T12:11:27;14.80;;;8.77;;
9115;SDS011;4593;53.652;10.168;2022-11-21T12:17:19;11.43;;;7.70;;
9115;SDS011;4593;53.652;10.168;2022-11-21T12:19:49;11.27;;;8.60;;
9115;SDS011;4593;53.652;10.168;2022-11-21T12:22:18;13.47;;;8.23;;
9115;SDS011;4593;53.652;10.168;2022-11-21T12:24:44;16.40;;;9.33;;
9115;SDS011;4593;53.652;10.168;2022-11-21T12:27:18;15.70;;;8.80;;
9115;SDS011;4593;53.652;10.168;2022-11-21T12:35:46;12.13;;;7.93;;
9115;SDS011;4593;53.652;10.168;2022-11-21T12:43:47;10.70;;;6.30;;
9115;SDS011;4593;53.652;10.168;2022-11-21T13:02:17;9.30;;;6.73;;
9115;SDS011;4593;53.652;10.168;2022-11-21T13:04:53;11.20;;;5.60;;
9115;SDS011;4593;53.652;10.168;2022-11-21T13:07:21;7.10;;;5.27;;
9115;SDS011;4593;53.652;10.168;2022-11-21T13:09:49;6.67;;;4.27;;
9115;SDS011;4593;53.652;10.168;2022-11-21T13:15:12;11.50;;;6.50;;
9115;SDS011;4593;53.652;10.168;2022-11-21T13:17:40;13.57;;;6.87;;
9115;SDS011;4593;53.652;10.168;2022-11-21T13:20:20;11.80;;;6.53;;
9115;SDS011;4593;53.652;10.168;2022-11-21T13:22:51;9.27;;;6.67;;
9115;SDS011;4593;53.652;10.168;2022-11-21T13:30:53;8.90;;;6.00;;
9115;SDS011;4593;53.652;10.168;2022-11-21T13:36:05;8.10;;;5.70;;
9115;SDS011;4593;53.652;10.168;2022-11-21T13:46:58;8.02;;;5.35;;
9115;SDS011;4593;53.652;10.168;2022-11-21T13:52:07;11.87;;;6.60;;
9115;SDS011;4593;53.652;10.168;2022-11-21T13:54:40;9.27;;;5.18;;
9115;SDS011;4593;53.652;10.168;2022-11-21T14:07:15;6.20;;;4.73;;
9115;SDS011;4593;53.652;10.168;2022-11-21T14:09:58;5.65;;;4.38;;
9115;SDS011;4593;53.652;10.168;2022-11-21T14:12:28;7.80;;;4.72;;
9115;SDS011;4593;53.652;10.168;2022-11-21T14:20:21;5.72;;;4.25;;
9115;SDS011;4593;53.652;10.168;2022-11-21T14:22:53;5.43;;;4.80;;
9115;SDS011;4593;53.652;10.168;2022-11-21T14:25:21;5.47;;;4.33;;
9115;SDS011;4593;53.652;10.168;2022-11-21T14:27:52;6.07;;;4.25;;
9115;SDS011;4593;53.652;10.168;2022-11-21T14:30:28;6.45;;;4.50;;
9115;SDS011;4593;53.652;10.168;2022-11-21T14:32:55;4.35;;;3.88;;
9115;SDS011;4593;53.652;10.168;2022-11-21T14:35:21;6.68;;;4.18;;
9115;SDS011;4593;53.652;10.168;2022-11-21T14:37:48;5.68;;;4.72;;
9115;SDS011;4593;53.652;10.168;2022-11-21T14:40:23;4.85;;;4.05;;
9115;SDS011;4593;53.652;10.168;2022-11-21T14:42:49;5.30;;;3.95;;
9115;SDS011;4593;53.652;10.168;2022-11-21T14:45:19;4.60;;;4.00;;
9115;SDS011;4593;53.652;10.168;2022-11-21T14:47:46;7.63;;;4.95;;
9115;SDS011;4593;53.652;10.168;2022-11-21T14:52:48;5.32;;;4.32;;
9115;SDS011;4593;53.652;10.168;2022-11-21T14:55:22;6.22;;;4.00;;
9115;SDS011;4593;53.652;10.168;2022-11-21T14:57:53;5.10;;;3.85;;
9115;SDS011;4593;53.652;10.168;2022-11-21T15:00:20;6.60;;;3.53;;
9115;SDS011;4593;53.652;10.168;2022-11-21T15:02:49;5.57;;;4.85;;
9115;SDS011;4593;53.652;10.168;2022-11-21T15:05:18;6.00;;;4.75;;
9115;SDS011;4593;53.652;10.168;2022-11-21T15:07:47;7.15;;;4.35;;
9115;SDS011;4593;53.652;10.168;2022-11-21T15:10:13;8.27;;;3.85;;
9115;SDS011;4593;53.652;10.168;2022-11-21T15:15:54;8.90;;;5.15;;
9115;SDS011;4593;53.652;10.168;2022-11-21T15:18:11;6.07;;;3.40;;
9115;SDS011;4593;53.652;10.168;2022-11-21T15:20:43;7.07;;;4.22;;
9115;SDS011;4593;53.652;10.168;2022-11-21T15:23:24;4.55;;;3.90;;
9115;SDS011;4593;53.652;10.168;2022-11-21T15:25:50;6.78;;;4.10;;
9115;SDS011;4593;53.652;10.168;2022-11-21T15:28:17;6.35;;;4.93;;
9115;SDS011;4593;53.652;10.168;2022-11-21T15:30:43;4.53;;;3.75;;
9115;SDS011;4593;53.652;10.168;2022-11-21T15:43:38;3.88;;;3.55;;
9115;SDS011;4593;53.652;10.168;2022-11-21T15:46:26;5.10;;;3.92;;
9115;SDS011;4593;53.652;10.168;2022-11-21T15:48:51;4.45;;;3.97;;
9115;SDS011;4593;53.652;10.168;2022-11-21T15:51:23;5.32;;;3.90;;
9115;SDS011;4593;53.652;10.168;2022-11-21T15:53:49;5.20;;;4.70;;
9115;SDS011;4593;53.652;10.168;2022-11-21T15:56:17;4.97;;;4.00;;
9115;SDS011;4593;53.652;10.168;2022-11-21T15:58:44;7.82;;;4.93;;
9115;SDS011;4593;53.652;10.168;2022-11-21T16:01:20;5.85;;;4.18;;
9115;SDS011;4593;53.652;10.168;2022-11-21T16:03:48;7.38;;;4.07;;
9115;SDS011;4593;53.652;10.168;2022-11-21T16:06:18;7.53;;;4.65;;
9115;SDS011;4593;53.652;10.168;2022-11-21T16:08:44;4.75;;;4.20;;
9115;SDS011;4593;53.652;10.168;2022-11-21T16:11:21;6.18;;;4.97;;
9115;SDS011;4593;53.652;10.168;2022-11-21T16:13:51;6.00;;;4.35;;
9115;SDS011;4593;53.652;10.168;2022-11-21T16:16:18;6.25;;;4.32;;
9115;SDS011;4593;53.652;10.168;2022-11-21T16:18:44;7.53;;;4.93;;
9115;SDS011;4593;53.652;10.168;2022-11-21T16:21:10;6.13;;;4.07;;
9115;SDS011;4593;53.652;10.168;2022-11-21T16:23:36;5.10;;;3.40;;
9115;SDS011;4593;53.652;10.168;2022-11-21T16:26:02;8.63;;;5.43;;
9115;SDS011;4593;53.652;10.168;2022-11-21T16:28:29;6.20;;;4.35;;
9115;SDS011;4593;53.652;10.168;2022-11-21T16:30:56;4.77;;;3.87;;
9115;SDS011;4593;53.652;10.168;2022-11-21T16:33:22;5.65;;;3.90;;
9115;SDS011;4593;53.652;10.168;2022-11-21T16:35:47;5.43;;;4.03;;
9115;SDS011;4593;53.652;10.168;2022-11-21T16:38:18;6.70;;;4.45;;
9115;SDS011;4593;53.652;10.168;2022-11-21T16:41:07;8.85;;;5.63;;
9115;SDS011;4593;53.652;10.168;2022-11-21T16:43:32;6.70;;;4.65;;
9115;SDS011;4593;53.652;10.168;2022-11-21T16:46:04;10.53;;;5.40;;
9115;SDS011;4593;53.652;10.168;2022-11-21T16:48:31;6.82;;;4.15;;
9115;SDS011;4593;53.652;10.168;2022-11-21T16:53:52;4.20;;;3.90;;
9115;SDS011;4593;53.652;10.168;2022-11-21T16:56:18;5.63;;;4.15;;
9115;SDS011;4593;53.652;10.168;2022-11-21T16:58:44;4.32;;;3.92;;
9115;SDS011;4593;53.652;10.168;2022-11-21T17:01:11;5.13;;;4.47;;
9115;SDS011;4593;53.652;10.168;2022-11-21T17:03:39;4.88;;;4.03;;
9115;SDS011;4593;53.652;10.168;2022-11-21T17:06:05;3.92;;;3.63;;
9115;SDS011;4593;53.652;10.168;2022-11-21T17:08:32;5.43;;;4.93;;
9115;SDS011;4593;53.652;10.168;2022-11-21T17:10:58;4.45;;;4.00;;
9115;SDS011;4593;53.652;10.168;2022-11-21T17:13:23;5.10;;;4.03;;
9115;SDS011;4593;53.652;10.168;2022-11-21T17:15:50;4.97;;;4.20;;
9115;SDS011;4593;53.652;10.168;2022-11-21T17:18:16;4.30;;;3.90;;
9115;SDS011;4593;53.652;10.168;2022-11-21T17:20:42;5.37;;;3.33;;